Time;durP1;ratioP1;P1;durP2;ratioP2;P2;SDS_P1;SDS_P2;PMS_P1;PMS_P2;Temp;Humidity;BMP_temperature;BMP_pressure;BME280_temperature;BME280_humidity;BME280_pressure;Samples;Min_cycle;Max_cycle;Signal;HPM_P1;HPM_P2
2023/10/28 00:01:51;;;;;;;;;;;19.80;1.00;;;;;;4973097;28;19933;-60
2023/10/28 00:04:18;;;;;;;;;;;19.70;1.00;;;;;;4973238;28;20352;-58
2023/10/28 00:06:45;;;;;;;;;;;19.70;1.00;;;;;;4973040;28;19937;-58
2023/10/28 00:09:11;;;;;;;;;;;19.70;1.00;;;;;;4973315;28;19933;-58
2023/10/28 00:11:38;;;;;;;;;;;19.70;1.00;;;;;;5067295;23;20399;-57
2023/10/28 00:14:05;;;;;;;;;;;19.70;1.00;;;;;;4953808;29;19961;-59
2023/10/28 00:16:32;;;;;;;;;;;19.70;1.00;;;;;;4953883;29;19933;-56
2023/10/28 00:18:59;;;;;;;;;;;19.60;1.00;;;;;;4953809;28;19927;-59
2023/10/28 00:21:27;;;;;;;;;;;19.60;1.00;;;;;;4953873;29;19930;-57
2023/10/28 00:23:56;;;;;;;;;;;19.60;1.00;;;;;;4953505;29;19927;-59
2023/10/28 00:26:23;;;;;;;;;;;19.60;1.00;;;;;;4953690;28;20451;-58
2023/10/28 00:28:51;;;;;;;;;;;19.50;1.00;;;;;;4953890;29;20443;-57
2023/10/28 00:31:21;;;;;;;;;;;19.50;1.00;;;;;;4953685;29;20017;-58
2023/10/28 00:33:51;;;;;;;;;;;19.50;1.00;;;;;;4954355;28;20389;-59
2023/10/28 00:36:17;;;;;;;;;;;19.50;1.00;;;;;;4940050;29;19927;-59
2023/10/28 00:38:44;;;;;;;;;;;19.50;1.00;;;;;;4939676;29;19958;-59
2023/10/28 00:44:04;;;;;;;;;;;19.50;1.00;;;;;;4953825;29;20455;-58
2023/10/28 00:46:31;;;;;;;;;;;19.40;1.00;;;;;;4939336;29;19934;-57
2023/10/28 00:48:59;;;;;;;;;;;19.40;1.00;;;;;;4956929;29;19927;-57
2023/10/28 00:51:26;;;;;;;;;;;19.40;1.00;;;;;;4955359;29;19953;-58
2023/10/28 00:53:53;;;;;;;;;;;19.40;1.00;;;;;;4956871;29;20021;-58
2023/10/28 00:56:19;;;;;;;;;;;19.40;1.00;;;;;;4955547;29;19965;-60
2023/10/28 00:58:47;;;;;;;;;;;19.40;1.00;;;;;;4939330;29;19935;-58
2023/10/28 01:01:14;;;;;;;;;;;19.30;1.00;;;;;;4939363;29;19999;-59
2023/10/28 01:03:41;;;;;;;;;;;19.30;1.00;;;;;;4955285;29;19926;-59
2023/10/28 01:06:09;;;;;;;;;;;19.30;1.00;;;;;;4939297;29;19926;-58
2023/10/28 01:08:36;;;;;;;;;;;19.30;1.00;;;;;;4955070;29;19953;-60
2023/10/28 01:11:03;;;;;;;;;;;19.30;1.00;;;;;;4939216;29;20013;-59
2023/10/28 01:16:26;;;;;;;;;;;19.30;1.00;;;;;;4899783;29;19928;-58
2023/10/28 01:18:53;;;;;;;;;;;19.20;1.00;;;;;;4901123;29;19941;-56
2023/10/28 01:21:21;;;;;;;;;;;19.30;1.00;;;;;;4901060;29;20476;-59
2023/10/28 01:23:47;;;;;;;;;;;19.20;1.00;;;;;;4917899;29;19934;-59
2023/10/28 01:26:14;;;;;;;;;;;19.20;1.00;;;;;;4918045;29;19927;-59
2023/10/28 01:28:41;;;;;;;;;;;19.20;1.00;;;;;;4900938;29;19934;-58
2023/10/28 01:31:08;;;;;;;;;;;19.20;1.00;;;;;;4917928;29;19927;-58
2023/10/28 01:33:35;;;;;;;;;;;19.20;1.00;;;;;;4900611;29;20412;-57
2023/10/28 01:36:01;;;;;;;;;;;19.20;1.00;;;;;;4900813;29;19927;-58
2023/10/28 01:38:29;;;;;;;;;;;19.20;1.00;;;;;;4917920;29;19958;-57
2023/10/28 01:40:57;;;;;;;;;;;19.10;1.00;;;;;;4908683;29;19979;-58
2023/10/28 01:43:23;;;;;;;;;;;19.10;1.00;;;;;;4917580;29;19927;-57
2023/10/28 01:48:46;;;;;;;;;;;19.10;1.00;;;;;;5015987;23;19966;-56
2023/10/28 01:51:14;;;;;;;;;;;19.10;1.00;;;;;;4941149;29;20031;-57
2023/10/28 01:53:41;;;;;;;;;;;19.10;1.00;;;;;;4955490;28;19982;-56
2023/10/28 01:56:08;;;;;;;;;;;19.00;1.00;;;;;;4955461;29;20013;-57
2023/10/28 01:58:35;;;;;;;;;;;19.00;1.00;;;;;;4938572;29;20333;-55
2023/10/28 02:01:03;;;;;;;;;;;19.10;1.00;;;;;;4953830;28;20287;-57
2023/10/28 02:03:30;;;;;;;;;;;19.00;1.00;;;;;;4938264;29;19978;-60
2023/10/28 02:05:58;;;;;;;;;;;19.00;1.00;;;;;;4938226;29;20059;-58
2023/10/28 02:08:25;;;;;;;;;;;19.00;1.00;;;;;;4955379;29;19926;-60
2023/10/28 02:10:51;;;;;;;;;;;19.00;1.00;;;;;;4955183;28;20017;-60
2023/10/28 02:13:19;;;;;;;;;;;19.00;1.00;;;;;;4953843;29;19927;-60
2023/10/28 02:15:49;;;;;;;;;;;19.00;1.00;;;;;;4954111;28;19927;-60
2023/10/28 02:21:11;;;;;;;;;;;18.90;1.00;;;;;;5018900;23;20380;-59
2023/10/28 02:23:38;;;;;;;;;;;18.90;1.00;;;;;;4954939;29;20455;-59
2023/10/28 02:26:05;;;;;;;;;;;18.90;1.00;;;;;;4945111;29;20345;-58
2023/10/28 02:28:32;;;;;;;;;;;18.90;1.00;;;;;;4934270;29;19936;-60
2023/10/28 02:30:59;;;;;;;;;;;18.90;1.00;;;;;;4937721;29;19934;-59
2023/10/28 02:33:26;;;;;;;;;;;18.90;1.00;;;;;;4937761;29;19937;-58
2023/10/28 02:35:52;;;;;;;;;;;18.90;1.00;;;;;;4959682;28;19989;-59
2023/10/28 02:38:19;;;;;;;;;;;18.90;1.00;;;;;;4936019;29;19927;-59
2023/10/28 02:40:46;;;;;;;;;;;18.90;1.00;;;;;;4954616;28;19970;-58
2023/10/28 02:43:13;;;;;;;;;;;18.90;1.00;;;;;;4937460;29;20012;-58
2023/10/28 02:45:40;;;;;;;;;;;18.80;1.00;;;;;;4945493;29;19941;-58
2023/10/28 02:48:07;;;;;;;;;;;18.80;1.00;;;;;;4953599;29;20407;-58
2023/10/28 02:50:36;;;;;;;;;;;18.80;1.00;;;;;;4937473;29;19927;-58
2023/10/28 02:53:03;;;;;;;;;;;18.80;1.00;;;;;;5070687;23;19973;-59
2023/10/28 02:55:30;;;;;;;;;;;18.80;1.00;;;;;;4937361;29;19931;-59
2023/10/28 02:57:57;;;;;;;;;;;18.80;1.00;;;;;;4952162;28;19926;-59
2023/10/28 03:00:23;;;;;;;;;;;18.80;1.00;;;;;;4944631;28;20022;-58
2023/10/28 03:02:52;;;;;;;;;;;18.80;1.00;;;;;;4934010;29;19935;-58
2023/10/28 03:05:20;;;;;;;;;;;18.80;1.00;;;;;;4918194;29;19926;-58
2023/10/28 03:07:47;;;;;;;;;;;18.80;1.00;;;;;;4918101;29;19927;-58
2023/10/28 03:10:14;;;;;;;;;;;18.80;1.00;;;;;;4935248;29;19949;-58
2023/10/28 03:12:41;;;;;;;;;;;18.80;1.00;;;;;;4935347;29;20377;-59
2023/10/28 03:15:10;;;;;;;;;;;18.70;1.00;;;;;;4933899;29;20013;-59
2023/10/28 03:17:37;;;;;;;;;;;18.70;1.00;;;;;;4935272;29;19926;-60
2023/10/28 03:20:05;;;;;;;;;;;18.70;1.00;;;;;;4935116;29;19927;-60
2023/10/28 03:25:28;;;;;;;;;;;18.70;1.00;;;;;;5353814;23;19992;-60
2023/10/28 03:27:55;;;;;;;;;;;18.70;1.00;;;;;;4954822;28;19937;-59
2023/10/28 03:30:22;;;;;;;;;;;18.70;1.00;;;;;;4945605;29;19930;-60
2023/10/28 03:32:49;;;;;;;;;;;18.70;1.00;;;;;;4936191;29;20399;-58
2023/10/28 03:35:16;;;;;;;;;;;18.60;1.00;;;;;;4953356;29;20021;-60
2023/10/28 03:37:44;;;;;;;;;;;18.70;1.00;;;;;;4953368;29;19927;-60
2023/10/28 03:40:11;;;;;;;;;;;18.60;1.00;;;;;;4953321;28;19930;-60
2023/10/28 03:42:38;;;;;;;;;;;18.60;1.00;;;;;;4953303;29;20014;-60
2023/10/28 03:45:05;;;;;;;;;;;18.60;1.00;;;;;;4952915;28;19927;-60
2023/10/28 03:47:35;;;;;;;;;;;18.60;1.00;;;;;;4953200;29;19931;-60
2023/10/28 03:50:02;;;;;;;;;;;18.60;1.00;;;;;;4953184;28;20480;-60
2023/10/28 03:52:29;;;;;;;;;;;18.60;1.00;;;;;;4953239;29;19926;-59
2023/10/28 03:54:56;;;;;;;;;;;18.50;1.00;;;;;;4969656;23;1803224;-59
2023/10/28 03:57:23;;;;;;;;;;;18.60;1.00;;;;;;4948175;28;19926;-59
2023/10/28 03:59:50;;;;;;;;;;;18.50;1.00;;;;;;4948464;28;19928;-59
2023/10/28 04:02:19;;;;;;;;;;;18.50;1.00;;;;;;4934733;29;19982;-58
2023/10/28 04:04:46;;;;;;;;;;;18.50;1.00;;;;;;4934670;29;20255;-58
2023/10/28 04:07:13;;;;;;;;;;;18.50;1.00;;;;;;4934754;29;19962;-59
2023/10/28 04:09:39;;;;;;;;;;;18.50;1.00;;;;;;4936909;29;19931;-58
2023/10/28 04:12:06;;;;;;;;;;;18.50;1.00;;;;;;4938487;29;19950;-59
2023/10/28 04:14:34;;;;;;;;;;;18.50;1.00;;;;;;4938203;29;19946;-59
2023/10/28 04:17:01;;;;;;;;;;;18.50;1.00;;;;;;4938272;29;20013;-59
2023/10/28 04:19:28;;;;;;;;;;;18.50;1.00;;;;;;4938203;29;20030;-59
2023/10/28 04:21:55;;;;;;;;;;;18.50;1.00;;;;;;4938278;29;20016;-58
2023/10/28 04:24:23;;;;;;;;;;;18.50;1.00;;;;;;4937980;29;20025;-58
2023/10/28 04:26:50;;;;;;;;;;;18.40;1.00;;;;;;5624136;23;19935;-57
2023/10/28 04:29:17;;;;;;;;;;;18.40;1.00;;;;;;4968311;28;19926;-58
2023/10/28 04:31:43;;;;;;;;;;;18.40;1.00;;;;;;4957203;29;20427;-57
2023/10/28 04:34:10;;;;;;;;;;;18.40;1.00;;;;;;4957025;29;19965;-56
2023/10/28 04:36:37;;;;;;;;;;;18.40;1.00;;;;;;4957351;29;20332;-59
2023/10/28 04:39:04;;;;;;;;;;;18.40;1.00;;;;;;4956974;28;19985;-58
2023/10/28 04:41:31;;;;;;;;;;;18.40;1.00;;;;;;4957054;28;19934;-60
2023/10/28 04:43:57;;;;;;;;;;;18.40;1.00;;;;;;4956660;29;19926;-59
2023/10/28 04:46:24;;;;;;;;;;;18.40;1.00;;;;;;4957378;29;20281;-60
2023/10/28 04:48:51;;;;;;;;;;;18.40;1.00;;;;;;4957038;29;19933;-59
2023/10/28 04:51:17;;;;;;;;;;;18.40;1.00;;;;;;4956717;28;19927;-60
2023/10/28 04:53:45;;;;;;;;;;;18.40;1.00;;;;;;4956684;29;19952;-58
2023/10/28 04:56:11;;;;;;;;;;;18.40;1.00;;;;;;4939397;29;20392;-59
2023/10/28 05:01:11;;;;;;;;;;;18.30;1.00;;;;;;4936154;28;19934;-58
2023/10/28 05:03:38;;;;;;;;;;;18.30;1.00;;;;;;4937637;29;20296;-57
2023/10/28 05:06:05;;;;;;;;;;;18.30;1.00;;;;;;4937531;29;20037;-59
2023/10/28 05:08:32;;;;;;;;;;;18.30;1.00;;;;;;4937231;29;19931;-59
2023/10/28 05:10:59;;;;;;;;;;;18.30;1.00;;;;;;4937237;29;19967;-57
2023/10/28 05:13:26;;;;;;;;;;;18.30;1.00;;;;;;4937145;29;19927;-59
2023/10/28 05:15:53;;;;;;;;;;;18.30;1.00;;;;;;4937212;29;19957;-59
2023/10/28 05:18:19;;;;;;;;;;;18.30;1.00;;;;;;4937377;29;20200;-58
2023/10/28 05:20:46;;;;;;;;;;;18.30;1.00;;;;;;4936093;29;20018;-55
2023/10/28 05:23:13;;;;;;;;;;;18.20;1.00;;;;;;4936906;29;19930;-57
2023/10/28 05:25:40;;;;;;;;;;;18.20;1.00;;;;;;4937452;29;19934;-58
2023/10/28 05:28:07;;;;;;;;;;;18.20;1.00;;;;;;4936815;29;19927;-56
2023/10/28 05:33:29;;;;;;;;;;;18.20;1.00;;;;;;4960467;23;19965;-58
2023/10/28 05:35:56;;;;;;;;;;;18.20;1.00;;;;;;4956084;28;19977;-58
2023/10/28 05:38:22;;;;;;;;;;;18.20;1.00;;;;;;4956029;28;19927;-57
2023/10/28 05:40:49;;;;;;;;;;;18.20;1.00;;;;;;4942505;28;19950;-58
2023/10/28 05:43:16;;;;;;;;;;;18.20;1.00;;;;;;4936362;29;19946;-59
2023/10/28 05:45:43;;;;;;;;;;;18.20;1.00;;;;;;4936805;29;19934;-59
2023/10/28 05:48:09;;;;;;;;;;;18.20;1.00;;;;;;4936771;29;19962;-58
2023/10/28 05:50:37;;;;;;;;;;;18.20;1.00;;;;;;4936594;29;20401;-58
2023/10/28 05:53:03;;;;;;;;;;;18.20;1.00;;;;;;4936623;29;19933;-58
2023/10/28 05:55:31;;;;;;;;;;;18.20;1.00;;;;;;4932019;29;19927;-59
2023/10/28 05:57:58;;;;;;;;;;;18.20;1.00;;;;;;4941707;29;19926;-59
2023/10/28 06:00:28;;;;;;;;;;;18.10;1.00;;;;;;4936406;29;19930;-59
2023/10/28 06:02:55;;;;;;;;;;;18.10;1.00;;;;;;5083208;23;19976;-58
2023/10/28 06:05:23;;;;;;;;;;;18.10;1.00;;;;;;4955628;29;20380;-56
2023/10/28 06:07:50;;;;;;;;;;;18.10;1.00;;;;;;4955526;29;19927;-56
2023/10/28 06:10:17;;;;;;;;;;;18.10;1.00;;;;;;4955380;29;19930;-59
2023/10/28 06:12:43;;;;;;;;;;;18.10;1.00;;;;;;4955581;29;20257;-58
2023/10/28 06:15:11;;;;;;;;;;;18.10;1.00;;;;;;4955154;29;19933;-58
2023/10/28 06:17:38;;;;;;;;;;;18.10;1.00;;;;;;4955388;29;19931;-59
2023/10/28 06:20:05;;;;;;;;;;;18.10;1.00;;;;;;4954995;28;19926;-59
2023/10/28 06:22:34;;;;;;;;;;;18.10;1.00;;;;;;4955353;29;19973;-59
2023/10/28 06:25:00;;;;;;;;;;;18.10;1.00;;;;;;4954896;28;20344;-59
2023/10/28 06:27:27;;;;;;;;;;;18.00;1.00;;;;;;4955075;29;20017;-59
2023/10/28 06:29:54;;;;;;;;;;;18.00;1.00;;;;;;4954997;28;19931;-58
2023/10/28 06:32:21;;;;;;;;;;;18.10;1.00;;;;;;4955149;28;20013;-59
2023/10/28 06:34:49;;;;;;;;;;;18.00;1.00;;;;;;4955231;29;20296;-59
2023/10/28 06:37:15;;;;;;;;;;;18.00;1.00;;;;;;4955008;28;19977;-59
2023/10/28 06:39:46;;;;;;;;;;;18.00;1.00;;;;;;4947640;29;19949;-58
2023/10/28 06:42:15;;;;;;;;;;;18.00;1.00;;;;;;4951021;29;19926;-58
2023/10/28 06:44:43;;;;;;;;;;;18.00;1.00;;;;;;4954182;29;19926;-57
2023/10/28 06:47:10;;;;;;;;;;;18.00;1.00;;;;;;4954650;29;20367;-57
2023/10/28 06:49:37;;;;;;;;;;;18.00;1.00;;;;;;4954206;29;19926;-57
2023/10/28 06:52:03;;;;;;;;;;;18.00;1.00;;;;;;4954550;29;19973;-58
2023/10/28 06:54:30;;;;;;;;;;;17.90;1.00;;;;;;4954420;29;19934;-59
2023/10/28 06:56:57;;;;;;;;;;;17.90;1.00;;;;;;4954579;29;19926;-59
2023/10/28 06:59:24;;;;;;;;;;;17.90;1.00;;;;;;4947371;29;20367;-59
2023/10/28 07:01:50;;;;;;;;;;;17.90;1.00;;;;;;4954313;29;19992;-58
2023/10/28 07:04:17;;;;;;;;;;;18.00;1.00;;;;;;5513291;23;19926;-59
2023/10/28 07:06:44;;;;;;;;;;;17.90;1.00;;;;;;4973873;28;20009;-59
2023/10/28 07:09:10;;;;;;;;;;;17.90;1.00;;;;;;4973569;28;19926;-59
2023/10/28 07:11:38;;;;;;;;;;;17.90;1.00;;;;;;4974107;28;19926;-59
2023/10/28 07:14:05;;;;;;;;;;;17.90;1.00;;;;;;4973381;28;19930;-59
2023/10/28 07:16:34;;;;;;;;;;;17.90;1.00;;;;;;4973756;28;19930;-57
2023/10/28 07:19:01;;;;;;;;;;;17.90;1.00;;;;;;4973489;28;19931;-59
2023/10/28 07:21:27;;;;;;;;;;;17.90;1.00;;;;;;4973650;28;20012;-59
2023/10/28 07:23:54;;;;;;;;;;;17.90;1.00;;;;;;4973444;28;19927;-59
2023/10/28 07:26:22;;;;;;;;;;;17.90;1.00;;;;;;4973512;28;19926;-59
2023/10/28 07:28:49;;;;;;;;;;;17.90;1.00;;;;;;4973301;28;20025;-59
2023/10/28 07:31:16;;;;;;;;;;;17.90;1.00;;;;;;4973390;28;19930;-59
2023/10/28 07:33:43;;;;;;;;;;;17.90;1.00;;;;;;4967058;28;19930;-59
2023/10/28 07:39:03;;;;;;;;;;;17.90;1.00;;;;;;4928111;29;19935;-58
2023/10/28 07:41:30;;;;;;;;;;;17.80;1.00;;;;;;4934634;29;19944;-58
2023/10/28 07:43:57;;;;;;;;;;;17.80;1.00;;;;;;4935038;29;19927;-57
2023/10/28 07:46:25;;;;;;;;;;;17.80;1.00;;;;;;4938588;29;19934;-56
2023/10/28 07:48:55;;;;;;;;;;;17.80;1.00;;;;;;4938416;29;19926;-58
2023/10/28 07:51:22;;;;;;;;;;;17.80;1.00;;;;;;4935045;29;20341;-58
2023/10/28 07:53:50;;;;;;;;;;;17.80;1.00;;;;;;4932910;29;19927;-58
2023/10/28 07:56:17;;;;;;;;;;;17.80;1.00;;;;;;4938040;29;19927;-58
2023/10/28 07:58:44;;;;;;;;;;;17.80;1.00;;;;;;4938111;29;19950;-58
2023/10/28 08:01:16;;;;;;;;;;;17.80;1.00;;;;;;4934398;29;20309;-59
2023/10/28 08:03:45;;;;;;;;;;;17.80;1.00;;;;;;4934509;29;19931;-60
2023/10/28 08:06:12;;;;;;;;;;;17.80;1.00;;;;;;4937221;29;19927;-58
2023/10/28 08:08:52;;;;;;;;;;;17.80;1.00;;;;;;5257619;23;20992;-59
2023/10/28 08:11:21;;;;;;;;;;;17.80;1.00;;;;;;4957082;28;19969;-57
2023/10/28 08:13:48;;;;;;;;;;;17.80;1.00;;;;;;4954411;29;19926;-57
2023/10/28 08:16:18;;;;;;;;;;;17.80;1.00;;;;;;4954393;29;19935;-58
2023/10/28 08:18:45;;;;;;;;;;;17.80;1.00;;;;;;4955004;29;19930;-58
2023/10/28 08:21:14;;;;;;;;;;;17.80;1.00;;;;;;4957381;29;20408;-60
2023/10/28 08:23:41;;;;;;;;;;;17.80;1.00;;;;;;4953810;29;20289;-59
2023/10/28 08:26:08;;;;;;;;;;;17.80;1.00;;;;;;4954943;29;19926;-59
2023/10/28 08:28:35;;;;;;;;;;;17.80;1.00;;;;;;4954209;29;19926;-59
2023/10/28 08:31:02;;;;;;;;;;;17.80;1.00;;;;;;4955061;29;19933;-60
2023/10/28 08:33:30;;;;;;;;;;;17.80;1.00;;;;;;4956495;29;19934;-60
2023/10/28 08:35:58;;;;;;;;;;;17.80;1.00;;;;;;4956922;29;19981;-60
2023/10/28 08:38:25;;;;;;;;;;;17.80;1.00;;;;;;4956728;29;19976;-58
2023/10/28 08:43:37;;;;;;;;;;;17.70;1.00;;;;;;4953732;28;19986;-60
2023/10/28 08:46:04;;;;;;;;;;;17.80;1.00;;;;;;4954508;29;20393;-58
2023/10/28 08:48:32;;;;;;;;;;;17.80;1.00;;;;;;4956399;29;20025;-58
2023/10/28 08:51:00;;;;;;;;;;;17.80;1.00;;;;;;4956436;29;20034;-58
2023/10/28 08:53:27;;;;;;;;;;;17.80;1.00;;;;;;4956015;29;20345;-58
2023/10/28 08:55:56;;;;;;;;;;;17.80;1.00;;;;;;4955131;28;20340;-60
2023/10/28 08:58:23;;;;;;;;;;;17.80;1.00;;;;;;4954593;28;19926;-59
2023/10/28 09:00:54;;;;;;;;;;;17.70;1.00;;;;;;4956328;28;20356;-57
2023/10/28 09:03:25;;;;;;;;;;;17.70;1.00;;;;;;4954533;28;19949;-59
2023/10/28 09:05:55;;;;;;;;;;;17.70;1.00;;;;;;4938914;29;19926;-60
2023/10/28 09:08:23;;;;;;;;;;;17.70;1.00;;;;;;4956135;28;20436;-59
2023/10/28 09:10:50;;;;;;;;;;;17.80;1.00;;;;;;4956075;29;19927;-60
2023/10/28 09:16:06;;;;;;;;;;;17.70;1.00;;;;;;4972059;28;19933;-57
2023/10/28 09:18:40;;;;;;;;;;;17.80;1.00;;;;;;4975055;28;19926;-59
2023/10/28 09:21:10;;;;;;;;;;;17.80;1.00;;;;;;4973330;28;19932;-60
2023/10/28 09:23:37;;;;;;;;;;;17.70;1.00;;;;;;4974828;28;19926;-60
2023/10/28 09:26:08;;;;;;;;;;;17.70;1.00;;;;;;4975008;28;19934;-58
2023/10/28 09:28:34;;;;;;;;;;;17.80;1.00;;;;;;4975324;28;19926;-59
2023/10/28 09:31:01;;;;;;;;;;;17.80;1.00;;;;;;4975319;28;19926;-59
2023/10/28 09:33:30;;;;;;;;;;;17.70;1.00;;;;;;4973892;28;19926;-57
2023/10/28 09:35:57;;;;;;;;;;;17.70;1.00;;;;;;4974236;28;19926;-59
2023/10/28 09:38:24;;;;;;;;;;;17.80;1.00;;;;;;4975222;28;19948;-59
2023/10/28 09:40:52;;;;;;;;;;;17.80;1.00;;;;;;4975121;28;19956;-60
2023/10/28 09:43:19;;;;;;;;;;;17.80;1.00;;;;;;4972278;28;20388;-57
2023/10/28 09:45:48;;;;;;;;;;;17.70;1.00;;;;;;5051682;23;19933;-59
2023/10/28 09:48:16;;;;;;;;;;;17.70;1.00;;;;;;4974347;28;19971;-58
2023/10/28 09:50:50;;;;;;;;;;;17.70;1.00;;;;;;4974895;28;19926;-57
2023/10/28 09:53:20;;;;;;;;;;;17.70;1.00;;;;;;4971970;28;19926;-56
2023/10/28 09:55:48;;;;;;;;;;;17.70;1.00;;;;;;4963819;28;19926;-59
2023/10/28 09:58:21;;;;;;;;;;;17.70;1.00;;;;;;4962941;28;20002;-60
2023/10/28 10:00:49;;;;;;;;;;;17.80;1.00;;;;;;4968414;28;19933;-59
2023/10/28 10:03:31;;;;;;;;;;;17.80;1.00;;;;;;4966169;28;19927;-58
2023/10/28 10:05:58;;;;;;;;;;;17.70;1.00;;;;;;4973463;28;19926;-59
2023/10/28 10:08:25;;;;;;;;;;;17.70;1.00;;;;;;4965678;28;19942;-57
2023/10/28 10:10:53;;;;;;;;;;;17.70;1.00;;;;;;4967499;28;20004;-57
2023/10/28 10:13:21;;;;;;;;;;;17.80;1.00;;;;;;4971228;28;20025;-56
2023/10/28 10:15:48;;;;;;;;;;;17.80;1.00;;;;;;5120578;23;19969;-58
2023/10/28 10:18:21;;;;;;;;;;;17.80;1.00;;;;;;4936109;29;19949;-56
2023/10/28 10:20:49;;;;;;;;;;;17.70;1.00;;;;;;4928502;29;19933;-57
2023/10/28 10:23:16;;;;;;;;;;;17.70;1.00;;;;;;4938416;29;19927;-59
2023/10/28 10:25:46;;;;;;;;;;;17.70;1.00;;;;;;4937338;29;20393;-56
2023/10/28 10:28:19;;;;;;;;;;;17.70;1.00;;;;;;4935829;29;20401;-57
2023/10/28 10:30:46;;;;;;;;;;;17.70;1.00;;;;;;4918865;29;20025;-58
2023/10/28 10:33:23;;;;;;;;;;;17.70;1.00;;;;;;4935586;29;19927;-58
2023/10/28 10:35:50;;;;;;;;;;;17.70;1.00;;;;;;4935958;29;20370;-58
2023/10/28 10:38:26;;;;;;;;;;;17.70;1.00;;;;;;4935663;29;19937;-58
2023/10/28 10:40:57;;;;;;;;;;;17.70;1.00;;;;;;4935664;29;19927;-56
2023/10/28 10:43:29;;;;;;;;;;;17.70;1.00;;;;;;4935387;29;19965;-58
2023/10/28 10:48:44;;;;;;;;;;;17.70;1.00;;;;;;5019312;23;19933;-59
2023/10/28 10:51:15;;;;;;;;;;;17.70;1.00;;;;;;4972317;28;20296;-59
2023/10/28 10:53:42;;;;;;;;;;;17.70;1.00;;;;;;4973175;28;20042;-58
2023/10/28 10:56:19;;;;;;;;;;;17.70;1.00;;;;;;4969888;28;19930;-58
2023/10/28 10:58:46;;;;;;;;;;;17.70;1.00;;;;;;4959609;28;19926;-59
2023/10/28 11:01:15;;;;;;;;;;;17.70;1.00;;;;;;4966451;28;19952;-59
2023/10/28 11:03:42;;;;;;;;;;;17.70;1.00;;;;;;4966409;28;19934;-57
2023/10/28 11:06:10;;;;;;;;;;;17.70;1.00;;;;;;4967459;28;20384;-59
2023/10/28 11:08:37;;;;;;;;;;;17.70;1.00;;;;;;4972104;28;19930;-57
2023/10/28 11:11:04;;;;;;;;;;;17.70;1.00;;;;;;4973581;28;20452;-58
2023/10/28 11:13:30;;;;;;;;;;;17.70;1.00;;;;;;4966043;28;19926;-59
2023/10/28 11:15:59;;;;;;;;;;;17.70;1.00;;;;;;4973134;28;19926;-59
2023/10/28 11:18:26;;;;;;;;;;;17.70;1.00;;;;;;5161989;23;20011;-56
2023/10/28 11:20:52;;;;;;;;;;;17.70;1.00;;;;;;4970052;28;20029;-58
2023/10/28 11:23:19;;;;;;;;;;;17.70;1.00;;;;;;4969660;28;19926;-57
2023/10/28 11:25:47;;;;;;;;;;;17.70;1.00;;;;;;4972026;28;19933;-59
2023/10/28 11:28:14;;;;;;;;;;;17.70;1.00;;;;;;4972489;28;19926;-59
2023/10/28 11:30:50;;;;;;;;;;;17.70;1.00;;;;;;4970847;28;19930;-57
2023/10/28 11:33:17;;;;;;;;;;;17.70;1.00;;;;;;4970126;28;19932;-57
2023/10/28 11:35:47;;;;;;;;;;;17.70;1.00;;;;;;4972735;28;19930;-60
2023/10/28 11:38:14;;;;;;;;;;;17.70;1.00;;;;;;4972836;28;19981;-58
2023/10/28 11:40:42;;;;;;;;;;;17.70;1.00;;;;;;4970280;28;19926;-59
2023/10/28 11:43:09;;;;;;;;;;;17.70;1.00;;;;;;4972560;28;19926;-59
2023/10/28 11:45:36;;;;;;;;;;;17.70;1.00;;;;;;4972691;28;19973;-58
2023/10/28 11:48:03;;;;;;;;;;;17.70;1.00;;;;;;4972697;28;19930;-58
2023/10/28 11:50:31;;;;;;;;;;;17.70;1.00;;;;;;4972814;28;20392;-58
2023/10/28 11:52:58;;;;;;;;;;;17.70;1.00;;;;;;4973319;28;19930;-57
2023/10/28 11:55:25;;;;;;;;;;;17.70;1.00;;;;;;4973020;28;20388;-58
2023/10/28 11:57:54;;;;;;;;;;;17.70;1.00;;;;;;4973170;28;19926;-56
2023/10/28 12:00:22;;;;;;;;;;;17.70;1.00;;;;;;4973224;28;20380;-56
2023/10/28 12:02:49;;;;;;;;;;;17.70;1.00;;;;;;4973150;28;19926;-58
2023/10/28 12:05:16;;;;;;;;;;;17.70;1.00;;;;;;4972941;28;19926;-58
2023/10/28 12:07:44;;;;;;;;;;;17.70;1.00;;;;;;4972973;28;19926;-57
2023/10/28 12:10:13;;;;;;;;;;;17.70;1.00;;;;;;4973053;28;20020;-57
2023/10/28 12:12:39;;;;;;;;;;;17.70;1.00;;;;;;4973061;28;19925;-58
2023/10/28 12:15:09;;;;;;;;;;;17.70;1.00;;;;;;4972965;28;19977;-59
2023/10/28 12:17:36;;;;;;;;;;;17.70;1.00;;;;;;4972907;28;19926;-58
2023/10/28 12:20:07;;;;;;;;;;;17.70;1.00;;;;;;4973089;28;19938;-58
2023/10/28 12:22:38;;;;;;;;;;;17.70;1.00;;;;;;4972777;28;19926;-57
2023/10/28 12:25:05;;;;;;;;;;;17.70;1.00;;;;;;4972795;28;20025;-58
2023/10/28 12:27:32;;;;;;;;;;;17.70;1.00;;;;;;4972700;28;19934;-57
2023/10/28 12:30:00;;;;;;;;;;;17.70;1.00;;;;;;4973990;28;20280;-58
2023/10/28 12:32:27;;;;;;;;;;;17.70;1.00;;;;;;4976472;28;19926;-57
2023/10/28 12:34:54;;;;;;;;;;;17.70;1.00;;;;;;4976274;28;19934;-57
2023/10/28 12:37:20;;;;;;;;;;;17.70;1.00;;;;;;4976357;28;19932;-58
2023/10/28 12:39:47;;;;;;;;;;;17.70;1.00;;;;;;4976233;28;19926;-55
2023/10/28 12:42:15;;;;;;;;;;;17.70;1.00;;;;;;4976262;28;19937;-57
2023/10/28 12:44:42;;;;;;;;;;;17.70;1.00;;;;;;4975975;28;20380;-58
2023/10/28 12:47:09;;;;;;;;;;;17.70;1.00;;;;;;4976209;28;19962;-58
2023/10/28 12:52:17;;;;;;;;;;;17.70;1.00;;;;;;4916349;29;19934;-57
2023/10/28 12:54:44;;;;;;;;;;;17.70;1.00;;;;;;4918464;29;19966;-57
2023/10/28 12:57:12;;;;;;;;;;;17.70;1.00;;;;;;4918638;29;19955;-57
2023/10/28 12:59:39;;;;;;;;;;;17.70;1.00;;;;;;4918338;29;20382;-59
2023/10/28 13:02:06;;;;;;;;;;;17.70;1.00;;;;;;4918603;29;20358;-58
2023/10/28 13:04:34;;;;;;;;;;;17.70;1.00;;;;;;4918038;29;19962;-58
2023/10/28 13:07:01;;;;;;;;;;;17.70;1.00;;;;;;4918454;29;19927;-59
2023/10/28 13:09:27;;;;;;;;;;;17.70;1.00;;;;;;4918216;29;19942;-59
2023/10/28 13:11:56;;;;;;;;;;;17.70;1.00;;;;;;4918318;29;20014;-59
2023/10/28 13:14:22;;;;;;;;;;;17.70;1.00;;;;;;4918294;29;20433;-58
2023/10/28 13:16:49;;;;;;;;;;;17.70;1.00;;;;;;4918065;29;19931;-59
2023/10/28 13:19:19;;;;;;;;;;;17.70;1.00;;;;;;4917961;29;19978;-58
2023/10/28 13:21:47;;;;;;;;;;;17.70;1.00;;;;;;5429154;23;20045;-58
2023/10/28 13:24:13;;;;;;;;;;;17.60;1.00;;;;;;4975468;28;19933;-58
2023/10/28 13:26:41;;;;;;;;;;;17.70;1.00;;;;;;4975172;28;20029;-58
2023/10/28 13:29:11;;;;;;;;;;;17.70;1.00;;;;;;4975409;28;19933;-59
2023/10/28 13:31:38;;;;;;;;;;;17.60;1.00;;;;;;4955986;29;19926;-59
2023/10/28 13:34:05;;;;;;;;;;;17.60;1.00;;;;;;4956008;29;19926;-59
2023/10/28 13:36:31;;;;;;;;;;;17.60;1.00;;;;;;4956180;29;20349;-57
2023/10/28 13:38:58;;;;;;;;;;;17.70;1.00;;;;;;4938555;29;19953;-59
2023/10/28 13:41:26;;;;;;;;;;;17.60;1.00;;;;;;4954870;28;19931;-59
2023/10/28 13:43:53;;;;;;;;;;;17.60;1.00;;;;;;4954202;29;20359;-59
2023/10/28 13:46:20;;;;;;;;;;;17.70;1.00;;;;;;4954565;29;19973;-59
2023/10/28 13:48:47;;;;;;;;;;;17.60;1.00;;;;;;4954359;29;19926;-58
2023/10/28 13:51:14;;;;;;;;;;;17.70;1.00;;;;;;4953937;28;20312;-57
2023/10/28 13:53:41;;;;;;;;;;;17.60;1.00;;;;;;5184952;23;20946;-56
2023/10/28 13:56:07;;;;;;;;;;;17.60;1.00;;;;;;4937515;29;20058;-59
2023/10/28 13:58:35;;;;;;;;;;;17.60;1.00;;;;;;4935902;29;20017;-59
2023/10/28 14:01:07;;;;;;;;;;;17.60;1.00;;;;;;4920183;29;19935;-57
2023/10/28 14:03:34;;;;;;;;;;;17.60;1.00;;;;;;4912486;29;19931;-59
2023/10/28 14:06:04;;;;;;;;;;;17.60;1.00;;;;;;4915146;29;20301;-59
2023/10/28 14:08:31;;;;;;;;;;;17.60;1.00;;;;;;4916421;29;19935;-58
2023/10/28 14:10:58;;;;;;;;;;;17.60;1.00;;;;;;4914958;29;19935;-56
2023/10/28 14:13:27;;;;;;;;;;;17.60;1.00;;;;;;4912034;29;19935;-59
2023/10/28 14:15:54;;;;;;;;;;;17.60;1.00;;;;;;4915989;29;19927;-58
2023/10/28 14:18:20;;;;;;;;;;;17.60;1.00;;;;;;4916679;29;19938;-58
2023/10/28 14:20:48;;;;;;;;;;;17.60;1.00;;;;;;4915210;29;19926;-59
2023/10/28 14:23:16;;;;;;;;;;;17.60;1.00;;;;;;4913977;29;20308;-59
2023/10/28 14:28:44;;;;;;;;;;;17.60;1.00;;;;;;4967596;23;20348;-59
2023/10/28 14:31:11;;;;;;;;;;;17.60;1.00;;;;;;4953867;28;19997;-59
2023/10/28 14:33:38;;;;;;;;;;;17.60;1.00;;;;;;4953148;28;19974;-57
2023/10/28 14:36:05;;;;;;;;;;;17.60;1.00;;;;;;4950820;28;19933;-59
2023/10/28 14:38:32;;;;;;;;;;;17.60;1.00;;;;;;4953771;28;19973;-59
2023/10/28 14:41:00;;;;;;;;;;;17.60;1.00;;;;;;4954435;28;20029;-57
2023/10/28 14:43:27;;;;;;;;;;;17.60;1.00;;;;;;4954740;28;19926;-59
2023/10/28 14:45:54;;;;;;;;;;;17.60;1.00;;;;;;4954754;28;19933;-56
2023/10/28 14:48:21;;;;;;;;;;;17.60;1.00;;;;;;4952297;28;19927;-59
2023/10/28 14:50:48;;;;;;;;;;;17.60;1.00;;;;;;4952420;28;19926;-59
2023/10/28 14:53:15;;;;;;;;;;;17.60;1.00;;;;;;4954352;28;20451;-59
2023/10/28 14:55:42;;;;;;;;;;;17.60;1.00;;;;;;4954457;28;19934;-57
2023/10/28 14:58:09;;;;;;;;;;;17.60;1.00;;;;;;4954593;28;19933;-59
2023/10/28 15:01:08;;;;;;;;;;;17.60;1.00;;;;;;4952538;28;20273;-59
2023/10/28 15:03:36;;;;;;;;;;;17.60;1.00;;;;;;4952275;28;20416;-59
2023/10/28 15:06:04;;;;;;;;;;;17.60;1.00;;;;;;4936677;28;19934;-59
2023/10/28 15:08:31;;;;;;;;;;;17.60;1.00;;;;;;4950969;28;19927;-58
2023/10/28 15:11:10;;;;;;;;;;;17.60;1.00;;;;;;4953090;28;19926;-59